Time;durP1;ratioP1;P1;durP2;ratioP2;P2;SDS_P1;SDS_P2;PMS_P1;PMS_P2;Temp;Humidity;BMP_temperature;BMP_pressure;BME280_temperature;BME280_humidity;BME280_pressure;Samples;Min_cycle;Max_cycle;Signal;HPM_P1;HPM_P2
2024/01/04 00:00:37;;;;;;;0.10;0.10;;;;;;;10.41;74.59;99612.78;5075876;28;20465;-79
2024/01/04 00:03:04;;;;;;;0.10;0.10;;;;;;;10.39;74.44;99609.31;5079283;28;20038;-79
2024/01/04 00:05:30;;;;;;;0.10;0.10;;;;;;;10.35;74.16;99620.00;5078871;28;20230;-80
2024/01/04 00:07:56;;;;;;;0.10;0.10;;;;;;;10.41;74.14;99626.00;5077967;28;20035;-79
2024/01/04 00:10:22;;;;;;;0.20;0.20;;;;;;;10.42;74.07;99631.25;5076647;28;20115;-78
2024/01/04 00:12:49;;;;;;;0.10;0.10;;;;;;;10.38;73.96;99639.34;5077373;28;20020;-79
2024/01/04 00:15:15;;;;;;;0.20;0.20;;;;;;;10.46;74.29;99638.13;5075493;28;20088;-78
2024/01/04 00:17:41;;;;;;;0.10;0.10;;;;;;;10.40;74.34;99637.53;5078400;28;20033;-79
2024/01/04 00:20:09;;;;;;;0.10;0.10;;;;;;;10.41;74.55;99649.84;5073690;28;20104;-78
2024/01/04 00:22:36;;;;;;;0.20;0.20;;;;;;;10.42;74.54;99646.25;5073614;28;20066;-77
2024/01/04 00:25:02;;;;;;;0.20;0.20;;;;;;;10.48;74.52;99656.59;5070962;28;20037;-77
2024/01/04 00:27:29;;;;;;;0.20;0.20;;;;;;;10.47;74.16;99657.56;5073856;28;20107;-77
2024/01/04 00:29:55;;;;;;;0.20;0.20;;;;;;;10.48;74.52;99661.91;5073499;28;20032;-79
2024/01/04 00:32:21;;;;;;;0.10;0.10;;;;;;;10.48;74.59;99661.91;5073671;28;20024;-79
2024/01/04 00:34:47;;;;;;;0.45;0.30;;;;;;;10.56;74.11;99672.22;5076520;28;20027;-78
2024/01/04 00:37:14;;;;;;;0.10;0.10;;;;;;;10.56;74.51;99675.72;5073321;28;20048;-77
2024/01/04 00:39:40;;;;;;;0.10;0.10;;;;;;;10.62;74.30;99679.94;5075292;28;20518;-79
2024/01/04 00:42:07;;;;;;;0.10;0.10;;;;;;;10.67;74.44;99678.81;5076589;28;20033;-80
2024/01/04 00:44:33;;;;;;;0.10;0.10;;;;;;;10.71;74.46;99673.41;5074902;28;20055;-80
2024/01/04 00:46:59;;;;;;;0.15;0.15;;;;;;;10.73;74.03;99674.19;5078890;28;20373;-79
2024/01/04 00:49:26;;;;;;;0.20;0.20;;;;;;;10.77;74.06;99673.16;5079181;28;20041;-79
2024/01/04 00:51:52;;;;;;;0.28;0.28;;;;;;;10.79;74.12;99689.84;5075288;28;20174;-81
2024/01/04 00:54:18;;;;;;;0.10;0.10;;;;;;;10.80;74.39;99694.22;5074948;28;20035;-79
2024/01/04 00:56:45;;;;;;;0.10;0.10;;;;;;;10.82;74.04;99697.69;5074341;28;20028;-80
2024/01/04 00:59:11;;;;;;;0.20;0.20;;;;;;;10.82;73.88;99697.69;5073836;28;20040;-80
2024/01/04 01:01:37;;;;;;;0.10;0.10;;;;;;;10.86;74.34;99703.75;5078161;28;20403;-79
2024/01/04 01:04:03;;;;;;;0.10;0.10;;;;;;;10.79;74.64;99709.28;5079171;28;20044;-80
2024/01/04 01:06:30;;;;;;;0.10;0.10;;;;;;;10.80;74.47;99715.44;5083668;28;20043;-80
2024/01/04 01:08:56;;;;;;;0.10;0.10;;;;;;;10.79;74.69;99729.59;5081571;28;20043;-81
2024/01/04 01:11:22;;;;;;;0.32;0.32;;;;;;;10.76;74.87;99737.69;5083536;28;20036;-80
2024/01/04 01:13:48;;;;;;;0.52;0.52;;;;;;;10.75;74.80;99752.69;5080546;28;20052;-80
2024/01/04 01:16:15;;;;;;;1.35;1.25;;;;;;;10.79;75.24;99748.13;5077679;28;20031;-79
2024/01/04 01:18:41;;;;;;;0.10;0.10;;;;;;;10.76;75.27;99753.56;5083977;28;20406;-79
2024/01/04 01:21:07;;;;;;;4.90;2.47;;;;;;;10.81;74.91;99759.56;5083594;28;20437;-79
2024/01/04 01:23:34;;;;;;;0.10;0.10;;;;;;;10.78;75.26;99764.94;5081949;28;20084;-80
2024/01/04 01:26:02;;;;;;;0.10;0.10;;;;;;;10.80;75.06;99764.00;5083588;28;20032;-79
2024/01/04 01:28:29;;;;;;;0.10;0.10;;;;;;;10.81;74.68;99772.81;5084108;28;20048;-79
2024/01/04 01:30:55;;;;;;;2.83;0.77;;;;;;;10.76;74.42;99774.78;5080660;28;20035;-78
2024/01/04 01:33:21;;;;;;;0.17;0.17;;;;;;;10.67;74.26;99776.81;5082482;28;20063;-79
2024/01/04 01:35:47;;;;;;;0.10;0.10;;;;;;;10.61;74.05;99779.72;5081741;28;20082;-78
2024/01/04 01:38:14;;;;;;;0.20;0.20;;;;;;;10.59;74.11;99781.56;5083478;28;20029;-80
2024/01/04 01:40:40;;;;;;;0.25;0.25;;;;;;;10.66;73.70;99779.53;5085807;28;20043;-80
2024/01/04 01:43:06;;;;;;;0.20;0.20;;;;;;;10.49;74.02;99799.59;5083729;28;20032;-79
2024/01/04 01:45:32;;;;;;;0.10;0.10;;;;;;;10.61;73.79;99792.94;5079656;28;20086;-79
2024/01/04 01:47:59;;;;;;;0.10;0.10;;;;;;;10.63;73.77;99804.38;5084667;28;20512;-78
2024/01/04 01:50:25;;;;;;;0.20;0.20;;;;;;;10.57;73.79;99804.59;5081764;28;20025;-79
2024/01/04 01:52:53;;;;;;;0.10;0.10;;;;;;;10.56;73.65;99809.94;5083542;28;20036;-79
2024/01/04 01:55:20;;;;;;;0.20;0.20;;;;;;;10.63;73.55;99816.72;5080303;28;20048;-79
2024/01/04 01:57:47;;;;;;;0.10;0.10;;;;;;;10.60;73.59;99815.06;5085071;28;20035;-79
2024/01/04 02:00:15;;;;;;;0.20;0.20;;;;;;;10.71;73.88;99821.78;5081299;28;20035;-79
2024/01/04 02:02:46;;;;;;;0.73;0.73;;;;;;;10.74;73.64;99824.28;5082001;28;20025;-80
2024/01/04 02:05:12;;;;;;;0.10;0.10;;;;;;;10.73;73.33;99815.50;5083372;28;20576;-80
2024/01/04 02:07:38;;;;;;;0.10;0.10;;;;;;;10.76;73.40;99820.66;5081986;28;20032;-80
2024/01/04 02:10:06;;;;;;;0.10;0.10;;;;;;;10.77;73.38;99822.41;5082142;28;20039;-80
2024/01/04 02:12:33;;;;;;;0.10;0.10;;;;;;;10.82;73.68;99830.19;5083388;28;20514;-80
2024/01/04 02:14:59;;;;;;;0.52;0.52;;;;;;;10.80;73.52;99837.31;5082913;28;20029;-80
2024/01/04 02:17:28;;;;;;;0.10;0.10;;;;;;;10.82;73.68;99835.47;5083036;28;20051;-80
2024/01/04 02:19:57;;;;;;;0.10;0.10;;;;;;;10.82;73.77;99841.63;5081869;28;20029;-80
2024/01/04 02:22:23;;;;;;;0.10;0.10;;;;;;;10.81;73.94;99837.25;5081298;28;20131;-80
2024/01/04 02:24:49;;;;;;;0.43;0.43;;;;;;;10.82;73.42;99849.56;5081037;28;20032;-79
2024/01/04 02:27:18;;;;;;;0.65;0.57;;;;;;;10.88;73.94;99856.44;5080635;28;20078;-79
2024/01/04 02:29:44;;;;;;;0.30;0.30;;;;;;;10.88;74.02;99856.44;5078268;28;20033;-79
2024/01/04 02:32:10;;;;;;;0.10;0.10;;;;;;;10.82;74.03;99865.47;5076837;28;20017;-78
2024/01/04 02:34:36;;;;;;;0.20;0.20;;;;;;;10.73;73.65;99868.47;5075212;28;20391;-80
2024/01/04 02:37:02;;;;;;;0.47;0.47;;;;;;;10.64;73.69;99863.50;5074830;28;20040;-80
2024/01/04 02:39:29;;;;;;;0.20;0.20;;;;;;;10.59;73.60;99874.28;5072926;28;20025;-80
2024/01/04 02:41:55;;;;;;;0.40;0.40;;;;;;;10.61;73.57;99880.38;5078102;28;20035;-79
2024/01/04 02:44:21;;;;;;;0.10;0.10;;;;;;;10.60;73.62;99883.06;5078260;28;20495;-79
2024/01/04 02:46:48;;;;;;;0.10;0.10;;;;;;;10.60;73.37;99883.94;5078194;28;20088;-80
2024/01/04 02:49:14;;;;;;;0.10;0.10;;;;;;;10.48;73.60;99895.84;5077942;28;20056;-80
2024/01/04 02:51:40;;;;;;;0.10;0.10;;;;;;;10.43;73.79;99910.13;5071817;28;20036;-79
2024/01/04 02:54:08;;;;;;;0.13;0.13;;;;;;;10.32;73.95;99915.78;5075218;28;20032;-78
2024/01/04 02:56:34;;;;;;;0.10;0.10;;;;;;;10.35;73.57;99895.38;5074334;28;20028;-79
2024/01/04 02:59:01;;;;;;;0.32;0.32;;;;;;;10.27;73.82;99905.34;5069673;28;20489;-79
2024/01/04 03:01:27;;;;;;;0.10;0.10;;;;;;;10.21;73.88;99908.19;5074048;28;20036;-80
2024/01/04 03:03:55;;;;;;;0.10;0.10;;;;;;;10.17;73.57;99909.22;5070819;28;20040;-80
2024/01/04 03:06:22;;;;;;;0.10;0.10;;;;;;;10.19;73.83;99907.38;5076482;28;20495;-80
2024/01/04 03:08:48;;;;;;;0.10;0.10;;;;;;;10.17;73.90;99912.72;5071349;28;20024;-80
2024/01/04 03:11:15;;;;;;;0.10;0.10;;;;;;;10.07;73.80;99926.31;5074398;28;20085;-82
2024/01/04 03:13:41;;;;;;;0.20;0.20;;;;;;;10.16;73.59;99923.38;5075581;28;20032;-80
2024/01/04 03:16:07;;;;;;;0.10;0.10;;;;;;;10.08;73.90;99925.41;5079848;28;20035;-81
2024/01/04 03:18:34;;;;;;;0.10;0.10;;;;;;;10.17;73.57;99931.25;5081060;28;20112;-81
2024/01/04 03:21:02;;;;;;;0.15;0.15;;;;;;;10.18;73.62;99929.47;5075403;28;20044;-81
2024/01/04 03:23:28;;;;;;;0.10;0.10;;;;;;;10.20;73.55;99928.53;5077036;28;20103;-81
2024/01/04 03:25:55;;;;;;;0.10;0.10;;;;;;;10.23;73.89;99927.56;5071137;28;20044;-80
2024/01/04 03:28:21;;;;;;;0.10;0.10;;;;;;;10.23;73.52;99937.25;5070714;28;20036;-80
2024/01/04 03:30:47;;;;;;;0.10;0.10;;;;;;;10.25;73.63;99941.59;5072910;28;20040;-79
2024/01/04 03:33:13;;;;;;;0.10;0.10;;;;;;;10.26;73.83;99945.97;5073340;28;20107;-79
2024/01/04 03:35:40;;;;;;;0.20;0.20;;;;;;;10.27;73.76;99944.19;5064088;28;20546;-79
2024/01/04 03:38:06;;;;;;;0.10;0.10;;;;;;;10.29;73.70;99942.34;5072056;28;20036;-78
2024/01/04 03:40:32;;;;;;;0.20;0.20;;;;;;;10.31;73.86;99951.97;5065317;28;20036;-79
2024/01/04 03:42:58;;;;;;;0.10;0.10;;;;;;;10.27;73.82;99947.72;5076922;28;20466;-79
2024/01/04 03:45:34;;;;;;;0.10;0.10;;;;;;;10.26;73.73;99959.22;5070749;28;20086;-79
2024/01/04 03:48:01;;;;;;;0.20;0.20;;;;;;;10.25;74.14;99957.47;5077779;28;20033;-78
2024/01/04 03:50:27;;;;;;;0.15;0.15;;;;;;;10.29;74.09;99951.19;5076192;28;20085;-79
2024/01/04 03:52:54;;;;;;;0.20;0.20;;;;;;;10.34;73.62;99957.19;5070648;28;20033;-79
2024/01/04 03:55:20;;;;;;;0.22;0.22;;;;;;;10.32;74.19;99959.00;5073329;28;20059;-79
2024/01/04 03:57:46;;;;;;;0.10;0.10;;;;;;;10.33;74.41;99960.75;5072056;28;20036;-80
2024/01/04 04:00:13;;;;;;;0.10;0.10;;;;;;;10.33;74.26;99965.16;5071948;28;20454;-79
2024/01/04 04:02:39;;;;;;;0.20;0.20;;;;;;;10.34;74.35;99962.47;5073115;28;20124;-79
2024/01/04 04:05:06;;;;;;;0.20;0.20;;;;;;;10.38;74.07;99965.03;5074082;28;20028;-79
2024/01/04 04:07:32;;;;;;;0.10;0.10;;;;;;;10.45;74.42;99977.16;5078730;28;20028;-80
2024/01/04 04:10:00;;;;;;;1.13;1.10;;;;;;;10.42;74.50;99969.31;5068836;28;20407;-79
2024/01/04 04:12:26;;;;;;;0.10;0.10;;;;;;;10.42;75.06;99974.59;5072104;28;20055;-80
2024/01/04 04:14:52;;;;;;;0.28;0.28;;;;;;;10.51;74.76;99975.16;5068420;28;20024;-79
2024/01/04 04:17:20;;;;;;;0.10;0.10;;;;;;;10.46;75.16;99970.97;5069346;28;20024;-79
2024/01/04 04:19:46;;;;;;;0.10;0.10;;;;;;;10.52;75.18;99970.75;5068408;28;20033;-80
2024/01/04 04:22:13;;;;;;;0.20;0.20;;;;;;;10.46;75.45;99986.84;5068813;28;20044;-80
2024/01/04 04:24:40;;;;;;;0.10;0.10;;;;;;;10.46;75.66;99986.84;5076571;28;20158;-80
2024/01/04 04:27:06;;;;;;;1.13;1.10;;;;;;;10.48;75.34;99995.59;5080819;28;20032;-81
2024/01/04 04:29:32;;;;;;;0.10;0.10;;;;;;;10.49;75.72;99986.72;5079205;28;20036;-82
2024/01/04 04:31:59;;;;;;;0.10;0.10;;;;;;;10.57;75.26;99984.72;5074362;28;20024;-82
2024/01/04 04:34:25;;;;;;;0.22;0.22;;;;;;;10.64;75.04;99994.19;5081379;28;20033;-80
2024/01/04 04:36:51;;;;;;;0.10;0.10;;;;;;;10.67;74.64;100002.00;5080448;28;20625;-81
2024/01/04 04:39:17;;;;;;;0.30;0.30;;;;;;;10.66;75.25;100002.91;5081448;28;20036;-81
2024/01/04 04:41:43;;;;;;;0.20;0.20;;;;;;;10.72;74.81;100007.16;5079364;28;20477;-80
2024/01/04 04:44:09;;;;;;;0.10;0.10;;;;;;;10.71;75.11;100013.38;5072676;28;20107;-81
2024/01/04 04:46:35;;;;;;;0.10;0.10;;;;;;;10.76;75.05;100005.28;5080143;28;20044;-81
2024/01/04 04:49:02;;;;;;;0.10;0.10;;;;;;;10.79;74.48;100011.34;5084070;28;20487;-79
2024/01/04 04:51:28;;;;;;;0.10;0.10;;;;;;;10.66;74.64;100010.88;5080570;28;20524;-80
2024/01/04 04:53:54;;;;;;;0.10;0.10;;;;;;;10.68;74.98;100019.66;5079912;28;20025;-81
2024/01/04 04:56:20;;;;;;;0.10;0.10;;;;;;;10.78;74.94;100027.28;5076307;28;20407;-82
2024/01/04 04:58:46;;;;;;;0.65;0.65;;;;;;;10.84;74.38;100027.06;5079887;28;20051;-80
2024/01/04 05:01:14;;;;;;;0.10;0.10;;;;;;;10.89;74.80;100030.44;5077807;28;20558;-81
2024/01/04 05:03:40;;;;;;;0.10;0.10;;;;;;;10.92;74.82;100030.31;5070033;28;20033;-81
2024/01/04 05:06:08;;;;;;;0.10;0.10;;;;;;;10.94;74.72;100036.44;5079995;28;20089;-80
2024/01/04 05:08:34;;;;;;;0.20;0.20;;;;;;;10.95;74.67;100038.19;5075902;28;20051;-81
2024/01/04 05:11:00;;;;;;;0.10;0.10;;;;;;;10.98;74.77;100048.66;5076541;28;20425;-82
2024/01/04 05:13:26;;;;;;;0.20;0.20;;;;;;;10.89;75.39;100045.47;5076315;28;20028;-81
2024/01/04 05:15:52;;;;;;;0.20;0.20;;;;;;;10.88;74.98;100051.69;5077341;28;20036;-81
2024/01/04 05:18:19;;;;;;;0.20;0.20;;;;;;;10.84;74.69;100045.59;5070372;28;20033;-81
2024/01/04 05:20:45;;;;;;;0.20;0.20;;;;;;;10.84;74.20;100043.84;5075697;28;20034;-79
2024/01/04 05:23:11;;;;;;;0.10;0.10;;;;;;;10.84;74.04;100049.16;5067295;28;20029;-80
2024/01/04 05:25:37;;;;;;;0.15;0.15;;;;;;;10.76;74.37;100058.28;5074312;28;20079;-80
2024/01/04 05:28:03;;;;;;;0.17;0.17;;;;;;;10.71;74.10;100065.50;5071029;28;20043;-80
2024/01/04 05:30:30;;;;;;;0.20;0.20;;;;;;;10.72;74.12;100056.66;5072934;28;20034;-81
2024/01/04 05:32:56;;;;;;;0.20;0.20;;;;;;;10.65;73.83;100056.84;5071303;28;20025;-81
2024/01/04 05:35:22;;;;;;;0.20;0.20;;;;;;;10.48;74.25;100072.41;5073234;28;20384;-81
2024/01/04 05:37:48;;;;;;;0.10;0.10;;;;;;;10.61;74.01;100073.75;5072423;28;20032;-81
2024/01/04 05:40:16;;;;;;;0.10;0.10;;;;;;;10.58;73.72;100081.81;5070697;28;20028;-80
2024/01/04 05:42:42;;;;;;;0.10;0.10;;;;;;;10.55;73.38;100084.53;5071199;28;20028;-80
2024/01/04 05:45:09;;;;;;;0.10;0.10;;;;;;;10.52;73.67;100084.66;5076409;28;20028;-80
2024/01/04 05:47:35;;;;;;;0.10;0.10;;;;;;;10.42;73.29;100088.47;5078926;28;20111;-81
2024/01/04 05:50:02;;;;;;;0.13;0.13;;;;;;;10.51;73.32;100088.22;5070623;28;20499;-81
2024/01/04 05:52:29;;;;;;;0.10;0.10;;;;;;;10.42;73.16;100093.78;5077534;28;20468;-81
2024/01/04 05:54:55;;;;;;;0.20;0.20;;;;;;;10.45;73.36;100096.34;5079206;28;20036;-80
2024/01/04 05:57:27;;;;;;;0.13;0.13;;;;;;;10.52;73.38;100104.03;5084321;28;20115;-79
2024/01/04 05:59:54;;;;;;;0.20;0.20;;;;;;;10.50;73.31;100099.72;5083731;28;20027;-79
2024/01/04 06:02:20;;;;;;;2.78;1.20;;;;;;;10.38;73.56;100103.63;5074562;28;20033;-81
2024/01/04 06:04:46;;;;;;;0.10;0.10;;;;;;;10.43;73.32;100111.41;5076619;28;20025;-80
2024/01/04 06:07:13;;;;;;;0.65;0.65;;;;;;;10.52;73.64;100116.44;5077177;28;20060;-80
2024/01/04 06:09:39;;;;;;;0.20;0.20;;;;;;;10.52;73.21;100119.09;5076328;28;20033;-78
2024/01/04 06:12:06;;;;;;;0.20;0.20;;;;;;;10.41;73.82;100122.06;5076246;28;20040;-80
2024/01/04 06:14:32;;;;;;;0.10;0.10;;;;;;;10.51;73.56;100122.63;5079174;28;20027;-80
2024/01/04 06:16:59;;;;;;;0.60;0.60;;;;;;;10.49;73.60;100130.63;5083627;28;20043;-79
2024/01/04 06:19:27;;;;;;;0.10;0.10;;;;;;;10.51;73.77;100127.94;5078368;28;20036;-80
2024/01/04 06:21:54;;;;;;;0.10;0.10;;;;;;;10.57;73.37;100126.88;5082270;28;20025;-80
2024/01/04 06:24:20;;;;;;;0.40;0.40;;;;;;;10.58;73.65;100134.78;5082542;28;20082;-80
2024/01/04 06:26:46;;;;;;;0.10;0.10;;;;;;;10.59;73.48;100139.16;5078682;28;20021;-80
2024/01/04 06:29:12;;;;;;;4.90;1.05;;;;;;;10.58;73.47;100137.44;5076410;28;20107;-82
2024/01/04 06:31:39;;;;;;;0.17;0.17;;;;;;;10.54;73.31;100143.72;5074332;28;20048;-81
2024/01/04 06:34:05;;;;;;;0.20;0.20;;;;;;;10.59;73.33;100143.59;5075157;28;20112;-81
2024/01/04 06:36:31;;;;;;;0.10;0.10;;;;;;;10.57;73.68;100143.63;5077011;28;20037;-81
2024/01/04 06:38:57;;;;;;;0.25;0.25;;;;;;;10.58;73.92;100155.09;5079591;28;20032;-81
2024/01/04 06:41:23;;;;;;;0.10;0.10;;;;;;;10.61;73.92;100166.47;5078075;28;20083;-80
2024/01/04 06:43:51;;;;;;;0.20;0.20;;;;;;;10.62;74.11;100167.34;5079413;28;20024;-81
2024/01/04 06:46:17;;;;;;;0.17;0.17;;;;;;;10.67;73.91;100173.38;5080320;28;20096;-81
2024/01/04 06:48:43;;;;;;;0.10;0.10;;;;;;;10.69;74.08;100160.91;5079651;28;20062;-81
2024/01/04 06:51:10;;;;;;;0.13;0.13;;;;;;;10.77;73.57;100168.66;5085014;28;20025;-80
2024/01/04 06:53:36;;;;;;;0.10;0.10;;;;;;;10.76;73.81;100166.91;5076634;28;20037;-79
2024/01/04 06:56:03;;;;;;;0.10;0.10;;;;;;;10.79;73.64;100165.03;5082073;28;20020;-79
2024/01/04 06:58:30;;;;;;;0.10;0.10;;;;;;;10.83;74.02;100171.09;5083618;28;20031;-80
2024/01/04 07:00:56;;;;;;;0.63;0.63;;;;;;;10.83;74.16;100181.72;5078621;28;20028;-82
2024/01/04 07:03:23;;;;;;;0.10;0.10;;;;;;;10.88;73.53;100184.19;5072197;28;20090;-82
2024/01/04 07:05:49;;;;;;;0.20;0.20;;;;;;;10.90;73.72;100188.53;5078685;28;20039;-81
2024/01/04 07:08:16;;;;;;;0.10;0.10;;;;;;;10.87;74.00;100191.28;5078572;28;20032;-82
2024/01/04 07:10:42;;;;;;;0.32;0.32;;;;;;;10.86;73.90;100197.50;5080978;28;21099;-79
2024/01/04 07:13:08;;;;;;;0.20;0.20;;;;;;;10.92;74.29;100202.59;5098911;28;20020;-80
2024/01/04 07:15:34;;;;;;;0.50;0.50;;;;;;;10.91;74.00;100198.22;5099446;28;20064;-81
2024/01/04 07:18:01;;;;;;;0.10;0.10;;;;;;;10.93;74.24;100211.41;5094252;28;20032;-82
2024/01/04 07:20:27;;;;;;;0.10;0.10;;;;;;;10.96;73.70;100220.13;5092943;28;20024;-81
2024/01/04 07:22:53;;;;;;;0.10;0.10;;;;;;;10.83;74.83;100218.81;5093559;28;20464;-81
2024/01/04 07:25:22;;;;;;;0.13;0.13;;;;;;;10.85;74.28;100216.94;5092906;28;20418;-79
2024/01/04 07:27:48;;;;;;;0.20;0.20;;;;;;;10.79;74.17;100218.03;5090237;28;20046;-80
2024/01/04 07:30:14;;;;;;;0.20;0.20;;;;;;;10.72;74.17;100220.91;5089913;28;20040;-80
2024/01/04 07:32:41;;;;;;;0.10;0.10;;;;;;;10.69;74.08;100221.84;5092901;28;20052;-80
2024/01/04 07:35:09;;;;;;;0.10;0.10;;;;;;;10.61;73.67;100230.03;5091993;28;20025;-81
2024/01/04 07:37:35;;;;;;;0.10;0.10;;;;;;;10.66;73.42;100233.41;5092515;28;20024;-81
2024/01/04 07:40:03;;;;;;;0.10;0.10;;;;;;;10.60;73.49;100236.25;5089330;28;20065;-81
2024/01/04 07:42:29;;;;;;;0.10;0.10;;;;;;;10.58;73.50;100235.44;5091697;28;20024;-81
2024/01/04 07:44:55;;;;;;;0.25;0.25;;;;;;;10.60;73.30;100243.34;5084340;28;20033;-79
2024/01/04 07:47:21;;;;;;;0.15;0.15;;;;;;;10.60;73.16;100244.19;5085036;28;20084;-81
2024/01/04 07:49:48;;;;;;;0.10;0.10;;;;;;;10.63;73.26;100245.88;5081487;28;20021;-81
2024/01/04 07:52:14;;;;;;;0.10;0.10;;;;;;;10.64;72.96;100250.28;5082505;28;20031;-81
2024/01/04 07:54:40;;;;;;;0.10;0.10;;;;;;;10.62;73.08;100247.69;5082151;28;20060;-83
2024/01/04 07:57:06;;;;;;;0.20;0.20;;;;;;;10.66;73.51;100254.59;5081471;28;20028;-81
2024/01/04 07:59:32;;;;;;;0.10;0.10;;;;;;;10.64;73.52;100247.63;5084093;28;20146;-82
2024/01/04 08:01:58;;;;;;;0.10;0.10;;;;;;;10.68;73.53;100252.78;5083627;28;20040;-81
2024/01/04 08:04:24;;;;;;;0.10;0.10;;;;;;;10.66;73.34;100259.91;5090783;28;20032;-80
2024/01/04 08:06:50;;;;;;;0.20;0.20;;;;;;;10.65;73.09;100259.97;5095908;28;20032;-80
2024/01/04 08:09:18;;;;;;;0.40;0.40;;;;;;;10.65;72.91;100258.19;5092283;28;20036;-80
2024/01/04 08:11:44;;;;;;;0.10;0.10;;;;;;;10.55;72.81;100256.72;5093047;28;20024;-81
2024/01/04 08:14:10;;;;;;;0.13;0.13;;;;;;;10.56;73.27;100269.06;5102127;28;20021;-78
2024/01/04 08:16:36;;;;;;;0.10;0.10;;;;;;;10.54;73.24;100270.00;5094957;28;20031;-81
2024/01/04 08:19:02;;;;;;;0.13;0.13;;;;;;;10.46;72.84;100267.59;5093948;28;20021;-82
2024/01/04 08:21:31;;;;;;;0.20;0.20;;;;;;;10.49;73.22;100263.06;5096083;28;20032;-81
2024/01/04 08:23:58;;;;;;;0.20;0.20;;;;;;;10.47;73.14;100264.03;5079508;28;20452;-81
2024/01/04 08:26:24;;;;;;;0.20;0.20;;;;;;;10.45;73.40;100271.13;5080515;28;20029;-82
2024/01/04 08:28:50;;;;;;;0.40;0.40;;;;;;;10.48;73.49;100268.38;5077363;28;20044;-80
2024/01/04 08:31:16;;;;;;;0.20;0.20;;;;;;;10.51;73.14;100270.97;5081940;28;20028;-82
2024/01/04 08:33:42;;;;;;;0.20;0.20;;;;;;;10.52;73.13;100272.72;5082676;28;20040;-82
2024/01/04 08:36:08;;;;;;;0.10;0.10;;;;;;;10.52;73.62;100280.66;5082496;28;20024;-80
2024/01/04 08:38:35;;;;;;;0.13;0.13;;;;;;;10.54;73.51;100275.31;5080434;28;20414;-82
2024/01/04 08:41:02;;;;;;;0.10;0.10;;;;;;;10.49;73.39;100284.25;5080478;28;20035;-81
2024/01/04 08:43:28;;;;;;;0.10;0.10;;;;;;;10.51;73.63;100289.50;5080550;28;20024;-79
2024/01/04 08:45:54;;;;;;;0.10;0.10;;;;;;;10.53;73.57;100282.41;5081688;28;20403;-81
2024/01/04 08:48:20;;;;;;;0.20;0.20;;;;;;;10.52;73.75;100293.91;5082725;28;20108;-81
2024/01/04 08:50:46;;;;;;;0.10;0.10;;;;;;;10.52;73.74;100291.25;5079748;28;20029;-81
2024/01/04 08:53:13;;;;;;;0.20;0.20;;;;;;;10.49;73.66;100293.97;5078110;28;20033;-81
2024/01/04 08:55:39;;;;;;;0.10;0.10;;;;;;;10.55;73.36;100293.78;5080006;28;20031;-82
2024/01/04 08:58:06;;;;;;;0.10;0.10;;;;;;;10.56;73.32;100298.19;5082136;28;20031;-82
2024/01/04 09:00:35;;;;;;;0.10;0.10;;;;;;;10.51;73.31;100297.47;5082089;28;20028;-81
2024/01/04 09:03:01;;;;;;;0.10;0.10;;;;;;;10.47;73.28;100303.75;5082068;28;20494;-82
2024/01/04 09:05:27;;;;;;;0.15;0.15;;;;;;;10.42;73.23;100308.28;5082920;28;20044;-81
2024/01/04 09:07:54;;;;;;;0.20;0.20;;;;;;;10.35;73.30;100308.47;5083046;28;20033;-81
2024/01/04 09:10:20;;;;;;;0.13;0.13;;;;;;;10.39;73.39;100316.34;5083365;28;20028;-81
2024/01/04 09:12:47;;;;;;;0.17;0.17;;;;;;;10.42;73.17;100319.78;5083371;28;20044;-83
2024/01/04 09:15:13;;;;;;;0.10;0.10;;;;;;;10.41;73.35;100322.47;5084678;28;20039;-80
2024/01/04 09:17:42;;;;;;;0.20;0.20;;;;;;;10.47;73.47;100327.59;5086795;28;20021;-80
2024/01/04 09:20:08;;;;;;;0.10;0.10;;;;;;;10.50;73.16;100332.78;5084770;28;20035;-80
2024/01/04 09:22:35;;;;;;;0.10;0.10;;;;;;;10.47;73.79;100338.19;5083537;28;20025;-81
2024/01/04 09:25:03;;;;;;;0.17;0.17;;;;;;;10.41;73.76;100344.50;5084569;28;20271;-81
2024/01/04 09:27:29;;;;;;;0.20;0.20;;;;;;;10.58;73.91;100341.41;5084327;28;20035;-82
2024/01/04 09:29:55;;;;;;;0.10;0.10;;;;;;;10.58;73.96;100335.22;5092551;28;20021;-80
2024/01/04 09:32:22;;;;;;;0.20;0.20;;;;;;;10.60;74.04;100339.56;5088710;28;20040;-81
2024/01/04 09:34:49;;;;;;;0.20;0.20;;;;;;;10.64;73.90;100338.59;5085641;28;20028;-81
2024/01/04 09:37:16;;;;;;;0.10;0.10;;;;;;;10.73;74.11;100340.09;5084909;28;20025;-80
2024/01/04 09:39:45;;;;;;;0.17;0.17;;;;;;;10.74;74.01;100343.59;5085376;28;20020;-80
2024/01/04 09:42:16;;;;;;;0.10;0.10;;;;;;;10.77;74.48;100356.78;5087827;28;20036;-81
2024/01/04 09:44:46;;;;;;;0.40;0.40;;;;;;;10.86;74.15;100356.50;5084010;28;20103;-81
2024/01/04 09:47:17;;;;;;;0.10;0.10;;;;;;;10.90;74.13;100360.78;5078789;28;20103;-81
2024/01/04 09:49:44;;;;;;;0.52;0.52;;;;;;;10.93;74.55;100362.47;5078254;28;20032;-82
2024/01/04 09:52:10;;;;;;;0.20;0.20;;;;;;;11.04;73.96;100362.19;5085159;28;20554;-82
2024/01/04 09:54:39;;;;;;;0.20;0.20;;;;;;;11.08;74.54;100366.47;5083006;28;20403;-79
2024/01/04 09:57:08;;;;;;;0.10;0.10;;;;;;;11.15;74.16;100373.31;5082333;28;20021;-82
2024/01/04 09:59:34;;;;;;;0.10;0.10;;;;;;;11.11;74.76;100379.66;5081819;28;20515;-80
2024/01/04 10:02:05;;;;;;;0.10;0.10;;;;;;;11.19;74.04;100382.94;5082572;28;20488;-79
2024/01/04 10:04:31;;;;;;;0.10;0.10;;;;;;;11.20;74.24;100375.84;5083026;28;20025;-79
2024/01/04 10:07:01;;;;;;;0.10;0.10;;;;;;;11.23;74.22;100381.06;5079832;28;20027;-79
2024/01/04 10:10:06;;;;;;;0.20;0.20;;;;;;;11.35;74.25;100377.16;5077252;28;20036;-80
2024/01/04 10:12:33;;;;;;;0.20;0.20;;;;;;;11.30;74.33;100385.25;5080188;28;20047;-81
2024/01/04 10:15:00;;;;;;;0.10;0.10;;;;;;;11.29;74.29;100387.06;5080132;28;20373;-80
2024/01/04 10:17:26;;;;;;;0.10;0.10;;;;;;;11.26;74.45;100386.28;5080627;28;20415;-79
2024/01/04 10:19:52;;;;;;;0.10;0.10;;;;;;;11.29;74.03;100392.34;5078882;28;20033;-79
2024/01/04 10:22:22;;;;;;;0.10;0.10;;;;;;;11.36;73.81;100400.13;5078442;28;20082;-78
2024/01/04 10:24:48;;;;;;;0.10;0.10;;;;;;;11.38;74.02;100401.81;5080123;28;20021;-78
2024/01/04 10:27:15;;;;;;;0.20;0.20;;;;;;;11.36;73.59;100411.59;5080303;28;20066;-79
2024/01/04 10:29:44;;;;;;;0.13;0.13;;;;;;;11.29;73.98;100410.03;5073510;28;20045;-79
2024/01/04 10:32:13;;;;;;;0.10;0.10;;;;;;;11.28;73.80;100417.13;5077778;28;20035;-78
2024/01/04 10:34:40;;;;;;;0.10;0.10;;;;;;;11.29;73.71;100413.56;5077314;28;20027;-79
2024/01/04 10:37:09;;;;;;;0.17;0.17;;;;;;;11.25;73.91;100405.75;5078569;28;20025;-80
2024/01/04 10:39:37;;;;;;;0.10;0.10;;;;;;;11.16;73.48;100401.59;5082646;28;20043;-80
2024/01/04 10:42:05;;;;;;;0.10;0.10;;;;;;;11.16;74.04;100406.88;5084969;28;20088;-80
2024/01/04 10:44:33;;;;;;;0.10;0.10;;;;;;;11.15;73.45;100413.09;5081446;28;20051;-79
2024/01/04 10:47:02;;;;;;;0.10;0.10;;;;;;;11.11;73.19;100411.47;5081557;28;20028;-80
2024/01/04 10:49:29;;;;;;;0.10;0.10;;;;;;;10.97;73.11;100417.16;5079123;28;20197;-80
2024/01/04 10:51:57;;;;;;;0.10;0.10;;;;;;;10.91;73.37;100412.91;5078121;28;20415;-79
2024/01/04 10:54:39;;;;;;;0.10;0.10;;;;;;;10.95;72.81;100413.69;5076827;28;20033;-81
2024/01/04 10:57:05;;;;;;;0.20;0.20;;;;;;;10.87;72.57;100413.91;5076454;28;20055;-81
2024/01/04 10:59:34;;;;;;;0.10;0.10;;;;;;;10.88;72.42;100413.00;5075851;28;20040;-81
2024/01/04 11:02:01;;;;;;;0.30;0.30;;;;;;;10.88;72.82;100418.31;5072387;28;20384;-79
2024/01/04 11:04:33;;;;;;;0.17;0.17;;;;;;;10.93;72.51;100411.09;5063933;28;20020;-81
2024/01/04 11:07:00;;;;;;;0.20;0.20;;;;;;;10.95;72.35;100411.91;5059928;28;20119;-81
2024/01/04 11:09:26;;;;;;;0.10;0.10;;;;;;;11.04;72.85;100407.25;5064873;28;20367;-80
2024/01/04 11:11:54;;;;;;;0.10;0.10;;;;;;;11.08;73.13;100409.78;5059185;28;20038;-79
2024/01/04 11:14:22;;;;;;;0.10;0.10;;;;;;;11.11;73.08;100408.81;5057506;28;20082;-80
2024/01/04 11:20:05;;;;;;;0.10;0.10;;;;;;;11.32;72.73;100409.97;5075979;27;20409;-79
2024/01/04 11:28:09;;;;;;;0.20;0.20;;;;;;;11.38;73.03;100411.56;5066895;28;20403;-80
2024/01/04 11:30:36;;;;;;;0.20;0.20;;;;;;;11.43;73.20;100414.94;5071447;28;20118;-81
2024/01/04 11:33:04;;;;;;;0.10;0.10;;;;;;;11.45;73.23;100406.03;5074388;28;20078;-80
2024/01/04 11:35:36;;;;;;;0.38;0.38;;;;;;;11.49;72.83;100404.16;5075134;28;20075;-81